Terminal Aerodrome Forecast
Issued by NWS

Home | Current Version | Previous Version | Text Only | Print | Product List | Glossary On
Versions: 1 2 3 4 5 6 7 8 9 10 11 12 13 14 15 16
000
FTUS45 KRIW 021721
TAFJAC
TAF
KJAC 021721Z 0218/0318 VRB03KT P6SM SCT030
     FM030600 33005KT P6SM BKN070
     FM031200 35005KT P6SM VCSH BKN040
     FM031600 19007KT 5SM -SN SCT018 OVC025
      AMD LTD TO CLD VIS AND WIND=

USA.gov is the U.S. government's official web portal to all federal, state and local government web resources and services.